x

Ilm2 - 5 Miles Se Of Wrightsville Beach, Nc (41038) Weather Station

2:08 - Tue 22nd Aug 2017 All times are EDT. -4 hours from GMT.

  • Wind
    7mph, 11mph gusts
  • Sea Temp 83°f
  • Luft Temp 83°f
  • Sea Pressure 1020.9mb
  • Ilm2 - 5 Miles Se Of Wrightsville Beach, Nc
  • Ilm2 - 5 Miles Se Of Wrightsville Beach, Nc

More Historic Weather Station data

Upgrade to MSW Pro to gain access to the past 30 days of data for over 8000 Wavebouys and Weather Stations around the globe.

Join

Comparision Forecast

View Surf forecast
   
Di 08/22 2:08 7 11 mph 1020.9mb 83f 83f
1:08 7 11 mph 1021.1mb 83f 83f
12:08 7 11 mph 1021.2mb 83f 83f
Mo 08/21 11:08 9 13 mph 1021.1mb 83f 83f
10:08 7 11 mph 1021.1mb 83f 83f
9:08 9 13 mph 1020.9mb 83f 83f
8:08 9 13 mph 1020.9mb 83f 83f
7:08 11 16 mph 1020.6mb 83f 82f
6:08 9 13 mph 1021.1mb 84f 83f
5:08 9 13 mph 1021.3mb 84f 82f
4:08 9 13 mph 1020.8mb 83f 82f
3:08 9 13 mph 1021.3mb 83f 82f
2:08 11 16 mph 1022.3mb 84f 83f
1:08 11 16 mph 1022.6mb 84f 82f
12:08 9 18 mph 1022.7mb 83f 82f
11:08 11 16 mph 1022.9mb 83f 81f
10:08 11 16 mph 1022.5mb 83f 81f
9:08 11 16 mph 1022.1mb 84f 82f
8:08 7 9 mph 1021.8mb 83f 82f
7:08 2 4 mph 1021.6mb 83f 82f
6:08 2 4 mph 1020.7mb 83f 81f
5:08 7 9 mph 1020.4mb 83f 82f
3:08 2 7 mph 1020.5mb 83f 82f
2:08 2 7 mph 1020.6mb 83f 83f
1:08 4 7 mph 1020.8mb 83f 83f
So 08/20 11:08 4 9 mph 1020.6mb 83f 83f
10:08 7 11 mph 1020.5mb 84f 83f
9:08 9 13 mph 1020.2mb 84f 83f
8:08 9 16 mph 1019.6mb 84f 83f
7:08 9 13 mph 1018.9mb 85f 83f
6:08 7 13 mph 1018.6mb 85f 83f
5:08 9 13 mph 1018.5mb 85f 83f
4:08 9 13 mph 1018.5mb 85f 83f
3:08 7 9 mph 1018.4mb 84f 84f
2:08 4 9 mph 1018.8mb 84f 83f
1:08 2 4 mph 1019mb 84f 84f
12:08 2 4 mph 1018.7mb 83f 82f
11:08 7 11 mph 1019.1mb 83f 81f
10:08 9 13 mph 1018.8mb 83f 81f
9:08 7 13 mph 1017.9mb 83f 82f
8:08 7 9 mph 1017.4mb 83f 82f
7:08 7 9 mph 1016.9mb 83f 82f
6:08 9 11 mph 1016mb 83f 82f
5:08 11 13 mph 1015.7mb 83f 83f
4:08 11 16 mph 1015.5mb 83f 83f
3:08 13 18 mph 1015.4mb 83f 83f
2:08 16 22 mph 1015.4mb 83f 83f
1:08 13 18 mph 1015.6mb 83f 83f
Sa 08/19 11:08 7 11 mph 1015mb 83f 82f
10:08 7 11 mph 1014.8mb 83f 82f
9:08 4 9 mph 1014.4mb 83f 81f
8:08 4 9 mph 1013.8mb 83f 80f
7:08 4 9 mph 1013.9mb 83f 79f
6:08 4 11 mph 1014.3mb 83f 76f
5:08 25 40 mph 1014.8mb 84f 77f
4:08 7 13 mph 1013.4mb 83f 81f
3:08 16 22 mph 1013.5mb 83f 84f
2:08 18 25 mph 1013.1mb 83f 84f
1:08 13 20 mph 1013.9mb 83f 84f
12:08 11 18 mph 1014mb 83f 84f
11:08 9 16 mph 1014.3mb 83f 85f
10:08 11 16 mph 1013.9mb 83f 84f
9:08 13 18 mph 1013.7mb 83f 84f
8:08 13 18 mph 1013.6mb 83f 84f
7:08 13 18 mph 1013.2mb 83f 83f
6:08 13 18 mph 1012.9mb 83f 83f
5:08 16 22 mph 1012.9mb 83f 83f
4:08 16 22 mph 1013.2mb 83f 83f
3:08 16 22 mph 1013.4mb 83f 84f
2:08 13 20 mph 1013.6mb 83f 84f
1:08 16 22 mph 1013.9mb 84f 84f
12:08 13 22 mph 1013.8mb 84f 84f
Fr 08/18 11:08 13 22 mph 1013.5mb 84f 84f
10:08 13 22 mph 1013.1mb 85f 84f
9:08 13 25 mph 1012.8mb 85f 84f
8:08 13 22 mph 1012.7mb 85f 84f
7:08 13 22 mph 1012.5mb 85f 85f
6:08 13 25 mph 1012.4mb 85f 85f
5:08 16 25 mph 1012.3mb 85f 85f
4:08 13 25 mph 1012.2mb 85f 85f
3:08 13 22 mph 1012.6mb 85f 85f
2:08 13 25 mph 1013.1mb 85f 85f
1:08 11 18 mph 1014mb 84f 84f
12:08 13 20 mph 1014.4mb 84f 85f
11:08 9 16 mph 1014.8mb 84f 85f
10:08 9 13 mph 1014.6mb 84f 85f
9:08 11 16 mph 1014.4mb 83f 84f
8:08 11 18 mph 1014.2mb 83f 84f